createdAt,value
2018-07-14T00:01:50.849Z,21.69
2018-07-14T00:04:19.816Z,21.67
2018-07-14T00:06:48.858Z,21.71
2018-07-14T00:09:17.881Z,21.70
2018-07-14T00:11:46.868Z,21.73
2018-07-14T00:14:15.925Z,21.70
2018-07-14T00:16:45.011Z,21.70
2018-07-14T00:19:13.976Z,21.69
2018-07-14T00:21:42.987Z,21.72
2018-07-14T00:24:11.981Z,21.74
2018-07-14T00:26:40.989Z,21.79
2018-07-14T00:29:10.039Z,21.76
2018-07-14T00:31:39.064Z,21.76
2018-07-14T00:34:08.194Z,21.79
2018-07-14T00:36:37.274Z,21.82
2018-07-14T00:39:06.975Z,21.90
2018-07-14T00:41:35.933Z,21.91
2018-07-14T00:44:04.897Z,21.87
2018-07-14T00:46:33.869Z,21.87
2018-07-14T00:49:02.901Z,21.89
2018-07-14T00:51:31.865Z,21.90
2018-07-14T00:54:00.884Z,21.95
2018-07-14T00:56:29.984Z,22.02
2018-07-14T00:58:59.002Z,22.12
2018-07-14T01:01:28.034Z,22.11
2018-07-14T01:03:57.031Z,22.13
2018-07-14T01:06:25.998Z,22.18
2018-07-14T01:08:55.047Z,22.24
2018-07-14T01:11:24.004Z,22.22
2018-07-14T01:13:53.156Z,22.24
2018-07-14T01:16:22.168Z,22.24
2018-07-14T01:18:51.241Z,22.34
2018-07-14T01:21:20.274Z,22.39
2018-07-14T01:23:49.237Z,22.49
2018-07-14T01:26:18.215Z,22.51
2018-07-14T01:28:47.353Z,22.50
2018-07-14T01:31:16.481Z,22.43
2018-07-14T01:33:45.432Z,22.31
2018-07-14T01:36:14.452Z,22.22
2018-07-14T01:38:43.492Z,22.05
2018-07-14T01:41:12.519Z,21.91
2018-07-14T01:43:41.514Z,21.75
2018-07-14T01:46:10.476Z,21.61
2018-07-14T01:48:39.621Z,21.52
2018-07-14T01:51:08.685Z,21.46
2018-07-14T01:53:37.644Z,21.39
2018-07-14T01:56:06.641Z,21.34
2018-07-14T01:58:35.607Z,21.32
2018-07-14T02:01:04.622Z,21.33
2018-07-14T02:03:33.576Z,21.33
2018-07-14T02:06:02.600Z,21.33
2018-07-14T02:08:31.609Z,21.33
2018-07-14T02:11:00.653Z,21.35
2018-07-14T02:13:29.752Z,21.34
2018-07-14T02:15:58.842Z,21.35
2018-07-14T02:18:27.881Z,21.39
2018-07-14T02:20:56.827Z,21.40
2018-07-14T02:23:25.776Z,21.46
2018-07-14T02:25:54.756Z,21.50
2018-07-14T02:28:23.776Z,21.56
2018-07-14T02:30:52.829Z,21.59
2018-07-14T02:33:21.792Z,21.62
2018-07-14T02:35:50.872Z,21.63
2018-07-14T02:38:19.904Z,21.59
2018-07-14T02:40:49.000Z,21.51
2018-07-14T02:43:17.979Z,21.49
2018-07-14T02:45:47.007Z,21.40
2018-07-14T02:48:16.008Z,21.27
2018-07-14T02:50:45.023Z,21.15
2018-07-14T02:53:14.129Z,21.07
2018-07-14T02:55:43.231Z,20.99
2018-07-14T02:58:12.217Z,20.93
2018-07-14T03:00:41.437Z,20.91
2018-07-14T03:03:10.452Z,20.84
2018-07-14T03:05:39.508Z,20.84
2018-07-14T03:08:08.528Z,20.86
2018-07-14T03:10:37.549Z,20.89
2018-07-14T03:13:06.600Z,20.93
2018-07-14T03:15:35.620Z,20.99
2018-07-14T03:18:04.643Z,21.06
2018-07-14T03:20:33.596Z,21.14
2018-07-14T03:23:02.613Z,21.25
2018-07-14T03:25:31.629Z,21.35
2018-07-14T03:28:00.675Z,21.43
2018-07-14T03:30:29.749Z,21.52
2018-07-14T03:32:58.824Z,21.62
2018-07-14T03:35:27.836Z,21.71
2018-07-14T03:37:56.909Z,21.80
2018-07-14T03:40:26.007Z,21.97
2018-07-14T03:42:55.022Z,22.18
2018-07-14T03:45:24.076Z,22.35
2018-07-14T03:47:53.033Z,22.49
2018-07-14T03:50:22.103Z,22.70
2018-07-14T03:52:51.092Z,22.91
2018-07-14T03:55:20.122Z,23.12
2018-07-14T03:57:49.100Z,23.46
2018-07-14T04:00:18.097Z,23.60
2018-07-14T04:02:47.182Z,23.68
2018-07-14T04:05:16.204Z,23.70
2018-07-14T04:07:46.036Z,23.78
2018-07-14T04:10:15.139Z,23.86
2018-07-14T04:12:44.187Z,23.92
2018-07-14T04:15:13.168Z,24.05
2018-07-14T04:17:42.232Z,24.14
2018-07-14T04:20:11.415Z,24.15
2018-07-14T04:22:40.401Z,24.17
2018-07-14T04:25:09.451Z,24.10
2018-07-14T04:27:38.460Z,24.00
2018-07-14T04:30:07.452Z,24.07
2018-07-14T04:32:36.460Z,24.23
2018-07-14T04:35:05.424Z,24.42
2018-07-14T04:37:34.474Z,24.16
2018-07-14T04:40:03.496Z,24.05
2018-07-14T04:42:32.546Z,24.02
2018-07-14T04:45:01.592Z,24.06
2018-07-14T04:47:30.907Z,24.21
2018-07-14T04:49:59.907Z,25.57
2018-07-14T04:52:28.912Z,28.41
2018-07-14T04:54:57.963Z,30.81
2018-07-14T04:57:26.969Z,31.10
2018-07-14T04:59:55.989Z,30.65
2018-07-14T05:02:24.976Z,30.07
2018-07-14T05:04:54.000Z,29.63
2018-07-14T05:07:23.004Z,28.89
2018-07-14T05:09:52.060Z,28.55
2018-07-14T05:12:21.154Z,28.20
2018-07-14T05:14:50.105Z,27.89
2018-07-14T05:17:19.124Z,27.46
2018-07-14T05:19:48.105Z,27.32
2018-07-14T05:22:17.135Z,27.15
2018-07-14T05:24:46.115Z,26.81
2018-07-14T05:27:15.141Z,26.65
2018-07-14T05:29:44.179Z,26.42
2018-07-14T05:32:13.171Z,26.36
2018-07-14T05:34:42.180Z,26.26
2018-07-14T05:37:11.164Z,26.79
2018-07-14T05:39:40.172Z,28.09
2018-07-14T05:42:09.202Z,30.41
2018-07-14T05:44:38.165Z,31.73
2018-07-14T05:47:07.351Z,31.47
2018-07-14T05:49:36.392Z,30.95
2018-07-14T05:52:05.712Z,32.12
2018-07-14T05:54:34.672Z,33.84
2018-07-14T05:57:03.645Z,32.62
2018-07-14T05:59:32.688Z,31.33
2018-07-14T06:02:01.773Z,30.80
2018-07-14T06:04:30.848Z,30.18
2018-07-14T06:06:59.800Z,29.45
2018-07-14T06:09:28.769Z,28.96
2018-07-14T06:11:58.120Z,28.41
2018-07-14T06:14:27.196Z,27.97
2018-07-14T06:16:56.161Z,27.80
2018-07-14T06:19:25.209Z,28.38
2018-07-14T06:21:54.271Z,28.70
2018-07-14T06:24:23.248Z,28.57
2018-07-14T06:26:52.481Z,28.57
2018-07-14T06:29:21.520Z,28.32
2018-07-14T06:31:50.563Z,28.42
2018-07-14T06:34:19.567Z,29.42
2018-07-14T06:36:48.589Z,30.78
2018-07-14T06:39:17.995Z,32.29
2018-07-14T06:41:47.033Z,34.06
2018-07-14T06:44:16.139Z,34.32
2018-07-14T06:46:45.104Z,33.67
2018-07-14T06:49:14.099Z,33.62
2018-07-14T06:51:43.170Z,32.84
2018-07-14T06:54:12.410Z,32.44
2018-07-14T06:56:41.641Z,31.75
2018-07-14T06:59:10.666Z,32.24
2018-07-14T07:01:39.764Z,32.51
2018-07-14T07:04:08.817Z,32.61
2018-07-14T07:06:37.851Z,32.83
2018-07-14T07:09:06.823Z,33.40
2018-07-14T07:11:35.808Z,33.22
2018-07-14T07:14:04.809Z,32.80
2018-07-14T07:16:33.894Z,32.32
2018-07-14T07:19:03.005Z,31.48
2018-07-14T07:21:32.040Z,30.80
2018-07-14T07:24:01.068Z,30.31
2018-07-14T07:26:30.160Z,29.85
2018-07-14T07:28:59.251Z,29.95
2018-07-14T07:31:28.326Z,30.16
2018-07-14T07:33:57.364Z,30.25
2018-07-14T07:36:26.308Z,30.91
2018-07-14T07:38:55.333Z,30.65
2018-07-14T07:41:24.389Z,30.64
2018-07-14T07:43:53.412Z,30.58
2018-07-14T07:46:22.450Z,30.44
2018-07-14T07:48:51.411Z,30.32
2018-07-14T07:51:20.566Z,30.69
2018-07-14T07:53:49.606Z,30.86
2018-07-14T07:56:18.681Z,31.44
2018-07-14T07:58:47.773Z,31.12
2018-07-14T08:01:16.888Z,31.40
2018-07-14T08:03:45.943Z,32.12
2018-07-14T08:06:14.961Z,33.12
2018-07-14T08:08:44.022Z,33.09
2018-07-14T08:11:13.100Z,32.51
2018-07-14T08:13:42.273Z,32.22
2018-07-14T08:16:11.306Z,31.78
2018-07-14T08:18:40.285Z,30.94
2018-07-14T08:21:09.358Z,30.83
2018-07-14T08:23:38.442Z,31.05
2018-07-14T08:26:07.860Z,31.49
2018-07-14T08:28:36.800Z,31.59
2018-07-14T08:31:05.812Z,31.35
2018-07-14T08:33:34.836Z,31.46
2018-07-14T08:36:03.927Z,31.70
2018-07-14T08:38:32.935Z,31.95
2018-07-14T08:41:02.022Z,32.06
2018-07-14T08:43:31.056Z,31.93
2018-07-14T08:46:00.019Z,31.57
2018-07-14T08:48:28.984Z,31.17
2018-07-14T08:50:57.931Z,30.99
2018-07-14T08:53:26.914Z,31.03
2018-07-14T08:55:55.886Z,31.23
2018-07-14T08:58:29.302Z,31.53
2018-07-14T09:00:59.596Z,31.42
2018-07-14T09:03:28.656Z,31.17
2018-07-14T09:05:58.086Z,31.12
2018-07-14T09:08:27.088Z,30.98
2018-07-14T09:10:56.074Z,31.36
2018-07-14T09:13:25.040Z,31.44
2018-07-14T09:15:54.122Z,31.00
2018-07-14T09:18:23.125Z,30.65
2018-07-14T09:20:52.228Z,30.51
2018-07-14T09:23:21.196Z,30.49
2018-07-14T09:25:50.151Z,30.67
2018-07-14T09:28:19.239Z,30.65
2018-07-14T09:30:48.287Z,30.56
2018-07-14T09:33:17.287Z,30.25
2018-07-14T09:35:46.337Z,30.45
2018-07-14T09:38:15.362Z,30.79
2018-07-14T09:40:44.380Z,31.16
2018-07-14T09:43:13.401Z,31.19
2018-07-14T09:45:42.387Z,31.04
2018-07-14T09:48:11.377Z,31.42
2018-07-14T09:50:40.524Z,31.67
2018-07-14T09:53:09.473Z,32.10
2018-07-14T09:55:38.578Z,32.39
2018-07-14T09:58:07.631Z,32.81
2018-07-14T10:00:36.757Z,32.93
2018-07-14T10:03:05.810Z,33.34
2018-07-14T10:05:34.755Z,33.85
2018-07-14T10:08:03.782Z,34.10
2018-07-14T10:10:32.798Z,34.08
2018-07-14T10:13:01.840Z,34.03
2018-07-14T10:15:30.906Z,34.61
2018-07-14T10:17:59.965Z,34.69
2018-07-14T10:20:29.000Z,34.75
2018-07-14T10:22:57.960Z,35.26
2018-07-14T10:25:26.992Z,35.53
2018-07-14T10:27:56.002Z,35.29
2018-07-14T10:30:24.986Z,35.40
2018-07-14T10:32:54.102Z,35.76
2018-07-14T10:35:23.125Z,35.82
2018-07-14T10:37:52.148Z,36.00
2018-07-14T10:40:21.176Z,36.33
2018-07-14T10:42:50.194Z,36.03
2018-07-14T10:45:19.221Z,35.92
2018-07-14T10:47:48.352Z,36.26
2018-07-14T10:50:17.385Z,36.29
2018-07-14T10:52:46.428Z,36.40
2018-07-14T10:55:15.491Z,36.81
2018-07-14T10:57:44.461Z,36.63
2018-07-14T11:00:13.474Z,36.66
2018-07-14T11:02:42.578Z,36.69
2018-07-14T11:05:11.643Z,37.00
2018-07-14T11:07:40.686Z,37.15
2018-07-14T11:10:09.730Z,37.22
2018-07-14T11:12:38.678Z,37.55
2018-07-14T11:15:07.728Z,37.77
2018-07-14T11:17:36.712Z,37.62
2018-07-14T11:20:05.672Z,37.85
2018-07-14T11:22:34.754Z,37.38
2018-07-14T11:25:03.878Z,37.42
2018-07-14T11:27:32.839Z,37.81
2018-07-14T11:30:01.791Z,37.95
2018-07-14T11:32:30.781Z,38.41
2018-07-14T11:34:59.851Z,38.26
2018-07-14T11:37:28.949Z,38.62
2018-07-14T11:39:57.897Z,39.11
2018-07-14T11:42:27.006Z,39.39
2018-07-14T11:44:56.050Z,39.36
2018-07-14T11:47:25.190Z,39.06
2018-07-14T11:49:54.205Z,39.11
2018-07-14T11:52:23.172Z,38.88
2018-07-14T11:54:52.292Z,38.26
2018-07-14T11:57:21.262Z,38.27
2018-07-14T11:59:50.232Z,38.50
2018-07-14T12:02:19.321Z,38.45
2018-07-14T12:04:48.417Z,38.61
2018-07-14T12:07:17.467Z,39.03
2018-07-14T12:09:46.457Z,39.01
2018-07-14T12:12:15.460Z,38.62
2018-07-14T12:14:44.541Z,38.85
2018-07-14T12:17:13.508Z,38.83
2018-07-14T12:19:42.533Z,38.97
2018-07-14T12:22:11.634Z,38.69
2018-07-14T12:24:40.624Z,38.35
2018-07-14T12:27:09.637Z,38.23
2018-07-14T12:29:38.664Z,38.73
2018-07-14T12:32:07.700Z,39.35
2018-07-14T12:34:36.806Z,39.65
2018-07-14T12:37:06.005Z,38.91
2018-07-14T12:39:35.141Z,38.53
2018-07-14T12:42:04.202Z,38.76
2018-07-14T12:44:33.593Z,39.12
2018-07-14T12:47:02.644Z,39.21
2018-07-14T12:49:31.685Z,38.80
2018-07-14T12:52:00.648Z,38.82
2018-07-14T12:54:29.742Z,39.38
2018-07-14T12:56:58.789Z,39.38
2018-07-14T12:59:27.749Z,38.87
2018-07-14T13:01:56.764Z,39.19
2018-07-14T13:04:25.774Z,38.91
2018-07-14T13:06:54.832Z,37.93
2018-07-14T13:09:23.945Z,38.69
2018-07-14T13:11:53.031Z,38.97
2018-07-14T13:14:22.020Z,38.65
2018-07-14T13:16:51.109Z,38.84
2018-07-14T13:19:20.129Z,40.24
2018-07-14T13:21:49.419Z,40.23
2018-07-14T13:24:18.617Z,39.41
2018-07-14T13:26:47.660Z,39.47
2018-07-14T13:29:16.728Z,39.34
2018-07-14T13:31:45.761Z,39.02
2018-07-14T13:34:14.815Z,39.23
2018-07-14T13:36:43.764Z,38.58
2018-07-14T13:39:12.859Z,37.67
2018-07-14T13:41:41.817Z,37.75
2018-07-14T13:44:10.763Z,37.56
2018-07-14T13:46:39.801Z,37.86
2018-07-14T13:49:08.755Z,37.77
2018-07-14T13:51:37.810Z,37.25
2018-07-14T13:54:07.089Z,37.29
2018-07-14T13:56:36.159Z,37.90
2018-07-14T13:59:05.172Z,37.82
2018-07-14T14:01:34.284Z,36.78
2018-07-14T14:04:03.252Z,35.77
2018-07-14T14:06:32.196Z,34.71
2018-07-14T14:09:01.172Z,33.90
2018-07-14T14:11:30.242Z,33.39
2018-07-14T14:13:59.236Z,32.80
2018-07-14T14:16:28.249Z,32.37
2018-07-14T14:18:57.228Z,31.88
2018-07-14T14:21:26.294Z,31.62
2018-07-14T14:23:55.419Z,31.32
2018-07-14T14:26:24.437Z,31.05
2018-07-14T14:28:53.388Z,30.83
2018-07-14T14:31:22.417Z,30.63
2018-07-14T14:33:51.505Z,30.50
2018-07-14T14:36:20.748Z,30.41
2018-07-14T14:38:49.732Z,30.29
2018-07-14T14:41:18.752Z,30.38
2018-07-14T14:43:48.065Z,30.33
2018-07-14T14:46:17.499Z,30.40
2018-07-14T14:48:46.530Z,30.46
2018-07-14T14:51:15.515Z,30.41
2018-07-14T14:53:44.484Z,30.41
2018-07-14T14:56:13.599Z,30.30
2018-07-14T14:58:42.713Z,30.19
2018-07-14T15:01:11.787Z,29.94
2018-07-14T15:03:40.764Z,29.89
2018-07-14T15:06:09.758Z,29.90
2018-07-14T15:08:38.855Z,29.85
2018-07-14T15:11:07.824Z,29.82
2018-07-14T15:13:37.006Z,29.78
2018-07-14T15:16:05.988Z,29.89
2018-07-14T15:18:35.033Z,29.89
2018-07-14T15:21:04.025Z,29.80
2018-07-14T15:23:32.988Z,29.71
2018-07-14T15:26:02.010Z,29.65
2018-07-14T15:28:31.073Z,29.61
2018-07-14T15:31:00.121Z,29.59
2018-07-14T15:33:29.577Z,29.53
2018-07-14T15:35:58.554Z,29.43
2018-07-14T15:38:27.596Z,29.38
2018-07-14T15:40:59.232Z,29.30
2018-07-14T15:43:28.219Z,29.28
2018-07-14T15:45:57.172Z,29.27
2018-07-14T15:48:26.226Z,29.21
2018-07-14T15:50:55.244Z,29.13
2018-07-14T15:53:24.444Z,29.14
2018-07-14T15:55:53.465Z,29.13
2018-07-14T15:58:22.459Z,29.09
2018-07-14T16:00:51.531Z,29.00
2018-07-14T16:03:20.464Z,29.00
2018-07-14T16:05:49.416Z,28.91
2018-07-14T16:08:18.457Z,28.84
2018-07-14T16:10:47.491Z,28.80
2018-07-14T16:13:16.443Z,28.80
2018-07-14T16:15:45.571Z,28.77
2018-07-14T16:18:20.844Z,28.72
2018-07-14T16:20:49.925Z,28.61
2018-07-14T16:23:19.043Z,28.48
2018-07-14T16:25:47.991Z,28.36
2018-07-14T16:28:17.099Z,28.33
2018-07-14T16:30:46.084Z,28.34
2018-07-14T16:33:15.126Z,28.40
2018-07-14T16:35:44.246Z,28.30
2018-07-14T16:38:13.164Z,28.27
2018-07-14T16:40:42.175Z,28.16
2018-07-14T16:43:11.329Z,28.14
2018-07-14T16:45:40.357Z,28.05
2018-07-14T16:48:09.365Z,27.98
2018-07-14T16:50:38.358Z,27.89
2018-07-14T16:53:07.328Z,27.84
2018-07-14T16:55:36.365Z,27.80
2018-07-14T16:58:05.367Z,27.75
2018-07-14T17:00:34.481Z,27.70
2018-07-14T17:03:03.493Z,27.63
2018-07-14T17:05:32.533Z,27.56
2018-07-14T17:08:01.578Z,27.47
2018-07-14T17:10:30.553Z,27.40
2018-07-14T17:12:59.627Z,27.32
2018-07-14T17:15:28.604Z,27.24
2018-07-14T17:17:57.644Z,27.22
2018-07-14T17:20:26.749Z,27.17
2018-07-14T17:22:55.775Z,27.07
2018-07-14T17:25:24.891Z,27.02
2018-07-14T17:27:53.897Z,26.93
2018-07-14T17:30:22.933Z,26.84
2018-07-14T17:32:51.879Z,26.75
2018-07-14T17:35:20.861Z,26.60
2018-07-14T17:37:49.942Z,26.54
2018-07-14T17:40:19.000Z,26.48
2018-07-14T17:42:47.980Z,26.45
2018-07-14T17:45:16.993Z,26.41
2018-07-14T17:47:46.053Z,26.34
2018-07-14T17:50:15.088Z,26.25
2018-07-14T17:52:44.116Z,26.15
2018-07-14T17:55:13.269Z,26.06
2018-07-14T17:57:42.426Z,25.98
2018-07-14T18:00:11.508Z,25.98
2018-07-14T18:02:40.520Z,25.91
2018-07-14T18:05:09.575Z,25.94
2018-07-14T18:07:38.552Z,25.92
2018-07-14T18:10:07.749Z,25.87
2018-07-14T18:12:36.769Z,25.90
2018-07-14T18:15:06.064Z,25.90
2018-07-14T18:17:35.158Z,25.86
2018-07-14T18:20:04.310Z,25.80
2018-07-14T18:22:33.452Z,25.75
2018-07-14T18:25:02.519Z,25.74
2018-07-14T18:27:31.536Z,25.68
2018-07-14T18:30:00.554Z,25.62
2018-07-14T18:32:29.617Z,25.52
2018-07-14T18:34:58.650Z,25.46
2018-07-14T18:37:28.037Z,25.44
2018-07-14T18:39:57.040Z,25.42
2018-07-14T18:42:26.190Z,25.41
2018-07-14T18:44:55.369Z,25.41
2018-07-14T18:47:25.104Z,25.41
2018-07-14T18:49:54.076Z,25.40
2018-07-14T18:52:23.161Z,25.42
2018-07-14T18:54:52.049Z,25.40
2018-07-14T18:57:21.076Z,25.38
2018-07-14T18:59:50.085Z,25.38
2018-07-14T19:02:19.114Z,25.36
2018-07-14T19:04:48.382Z,25.35
2018-07-14T19:07:17.358Z,25.30
2018-07-14T19:09:46.340Z,25.30
2018-07-14T19:12:15.697Z,25.25
2018-07-14T19:14:44.754Z,25.25
2018-07-14T19:17:13.792Z,25.26
2018-07-14T19:19:42.918Z,25.20
2018-07-14T19:22:12.018Z,25.19
2018-07-14T19:24:41.010Z,25.13
2018-07-14T19:27:10.101Z,25.07
2018-07-14T19:29:39.180Z,25.11
2018-07-14T19:32:08.444Z,25.05
2018-07-14T19:34:37.498Z,25.02
2018-07-14T19:37:06.467Z,25.01
2018-07-14T19:39:35.519Z,24.96
2018-07-14T19:42:04.560Z,24.88
2018-07-14T19:44:33.647Z,24.80
2018-07-14T19:47:02.689Z,24.76
2018-07-14T19:49:31.732Z,24.75
2018-07-14T19:52:00.711Z,24.64
2018-07-14T19:54:29.676Z,24.61
2018-07-14T19:56:58.784Z,24.61
2018-07-14T19:59:27.797Z,24.56
2018-07-14T20:01:56.848Z,24.53
2018-07-14T20:04:25.819Z,24.45
2018-07-14T20:06:54.860Z,24.43
2018-07-14T20:09:23.953Z,24.39
2018-07-14T20:11:53.012Z,24.34
2018-07-14T20:14:22.042Z,24.33
2018-07-14T20:16:51.069Z,24.33
2018-07-14T20:19:20.061Z,24.33
2018-07-14T20:21:49.036Z,24.28
2018-07-14T20:24:18.388Z,24.27
2018-07-14T20:26:47.444Z,24.31
2018-07-14T20:29:16.492Z,24.35
2018-07-14T20:31:45.524Z,24.34
2018-07-14T20:34:14.675Z,24.24
2018-07-14T20:36:43.699Z,24.21
2018-07-14T20:39:12.663Z,24.16
2018-07-14T20:41:41.686Z,24.17
2018-07-14T20:44:10.652Z,24.16
2018-07-14T20:46:39.693Z,24.08
2018-07-14T20:49:08.676Z,24.05
2018-07-14T20:51:37.762Z,24.08
2018-07-14T20:54:07.016Z,24.05
2018-07-14T20:56:36.055Z,24.00
2018-07-14T20:59:05.040Z,23.95
2018-07-14T21:01:34.028Z,23.91
2018-07-14T21:04:03.020Z,23.86
2018-07-14T21:06:32.042Z,23.85
2018-07-14T21:09:01.020Z,23.80
2018-07-14T21:11:29.981Z,23.70
2018-07-14T21:13:59.073Z,23.65
2018-07-14T21:16:28.104Z,23.65
2018-07-14T21:18:57.077Z,23.63
2018-07-14T21:21:26.275Z,23.63
2018-07-14T21:23:55.128Z,23.60
2018-07-14T21:26:24.176Z,23.60
2018-07-14T21:28:53.148Z,23.57
2018-07-14T21:31:22.194Z,23.58
2018-07-14T21:33:51.156Z,23.58
2018-07-14T21:36:20.300Z,23.53
2018-07-14T21:38:49.321Z,23.47
2018-07-14T21:41:18.403Z,23.43
2018-07-14T21:43:47.511Z,23.44
2018-07-14T21:46:16.492Z,23.42
2018-07-14T21:48:45.533Z,23.41
2018-07-14T21:51:14.538Z,23.37
2018-07-14T21:53:43.588Z,23.36
2018-07-14T21:56:12.686Z,23.35
2018-07-14T21:58:41.727Z,23.33
2018-07-14T22:01:15.857Z,23.30
2018-07-14T22:03:44.893Z,23.32
2018-07-14T22:06:13.918Z,23.31
2018-07-14T22:08:42.978Z,23.35
2018-07-14T22:11:12.028Z,23.36
2018-07-14T22:13:40.992Z,23.35
2018-07-14T22:16:09.977Z,23.45
2018-07-14T22:18:38.936Z,23.42
2018-07-14T22:21:07.995Z,23.37
2018-07-14T22:23:36.968Z,23.35
2018-07-14T22:26:06.165Z,23.35
2018-07-14T22:28:35.140Z,23.38
2018-07-14T22:31:04.241Z,23.50
2018-07-14T22:33:33.330Z,23.43
2018-07-14T22:36:02.365Z,23.37
2018-07-14T22:38:31.357Z,23.38
2018-07-14T22:41:00.371Z,23.31
2018-07-14T22:43:29.412Z,23.28
2018-07-14T22:45:58.388Z,23.24
2018-07-14T22:48:27.481Z,23.20
2018-07-14T22:50:56.452Z,23.19
2018-07-14T22:53:25.405Z,23.13
2018-07-14T22:55:54.397Z,23.06
2018-07-14T22:58:23.405Z,22.99
2018-07-14T23:00:52.390Z,22.97
2018-07-14T23:03:21.349Z,22.96
2018-07-14T23:05:50.386Z,22.97
2018-07-14T23:08:19.408Z,22.97
2018-07-14T23:10:48.389Z,22.97
2018-07-14T23:13:17.416Z,22.96
2018-07-14T23:15:46.445Z,22.99
2018-07-14T23:18:15.408Z,23.03
2018-07-14T23:20:44.435Z,22.97
2018-07-14T23:23:13.465Z,22.98
2018-07-14T23:25:42.501Z,22.94
2018-07-14T23:28:11.599Z,22.92
2018-07-14T23:30:40.686Z,22.94
2018-07-14T23:33:09.732Z,22.95
2018-07-14T23:35:38.742Z,22.90
2018-07-14T23:38:07.850Z,22.83
2018-07-14T23:40:36.836Z,22.75
2018-07-14T23:43:05.817Z,22.70
2018-07-14T23:45:34.865Z,22.74
2018-07-14T23:48:03.950Z,22.77
2018-07-14T23:50:32.926Z,22.78
2018-07-14T23:53:01.944Z,22.78
2018-07-14T23:55:31.020Z,22.74
2018-07-14T23:58:00.020Z,22.71
